sensor_id;sensor_type;location;lat;lon;timestamp;P1;durP1;ratioP1;P2;durP2;ratioP2
3343;SDS011;1685;53.104;8.228;2023-04-25T00:00:48;36.27;;;5.50;;
3343;SDS011;1685;53.104;8.228;2023-04-25T00:03:17;38.70;;;5.80;;
3343;SDS011;1685;53.104;8.228;2023-04-25T00:05:44;21.40;;;4.70;;
3343;SDS011;1685;53.104;8.228;2023-04-25T00:08:13;20.83;;;6.47;;
3343;SDS011;1685;53.104;8.228;2023-04-25T00:10:39;26.00;;;5.30;;
3343;SDS011;1685;53.104;8.228;2023-04-25T00:13:06;18.23;;;5.23;;
3343;SDS011;1685;53.104;8.228;2023-04-25T00:15:36;28.87;;;6.57;;
3343;SDS011;1685;53.104;8.228;2023-04-25T00:18:03;17.20;;;5.83;;
3343;SDS011;1685;53.104;8.228;2023-04-25T00:20:31;24.60;;;5.70;;
3343;SDS011;1685;53.104;8.228;2023-04-25T00:22:58;22.03;;;5.60;;
3343;SDS011;1685;53.104;8.228;2023-04-25T00:25:27;37.90;;;6.00;;
3343;SDS011;1685;53.104;8.228;2023-04-25T00:27:54;14.50;;;5.50;;
3343;SDS011;1685;53.104;8.228;2023-04-25T00:30:21;23.77;;;6.03;;
3343;SDS011;1685;53.104;8.228;2023-04-25T00:32:48;28.17;;;7.37;;
3343;SDS011;1685;53.104;8.228;2023-04-25T00:35:15;13.17;;;5.43;;
3343;SDS011;1685;53.104;8.228;2023-04-25T00:37:42;16.97;;;5.00;;
3343;SDS011;1685;53.104;8.228;2023-04-25T00:40:10;25.83;;;6.10;;
3343;SDS011;1685;53.104;8.228;2023-04-25T00:42:38;38.83;;;6.40;;
3343;SDS011;1685;53.104;8.228;2023-04-25T00:45:06;27.80;;;5.80;;
3343;SDS011;1685;53.104;8.228;2023-04-25T00:47:38;30.23;;;5.93;;
3343;SDS011;1685;53.104;8.228;2023-04-25T00:50:06;19.23;;;5.37;;
3343;SDS011;1685;53.104;8.228;2023-04-25T00:52:33;23.83;;;6.13;;
3343;SDS011;1685;53.104;8.228;2023-04-25T00:55:01;31.80;;;5.30;;
3343;SDS011;1685;53.104;8.228;2023-04-25T00:57:28;23.20;;;5.37;;
3343;SDS011;1685;53.104;8.228;2023-04-25T00:59:57;28.43;;;6.00;;
3343;SDS011;1685;53.104;8.228;2023-04-25T01:02:24;25.17;;;5.60;;
3343;SDS011;1685;53.104;8.228;2023-04-25T01:04:52;21.60;;;5.53;;
3343;SDS011;1685;53.104;8.228;2023-04-25T01:07:19;29.30;;;6.17;;
3343;SDS011;1685;53.104;8.228;2023-04-25T01:09:46;15.10;;;4.67;;
3343;SDS011;1685;53.104;8.228;2023-04-25T01:12:13;29.67;;;5.13;;
3343;SDS011;1685;53.104;8.228;2023-04-25T01:14:40;9.20;;;4.17;;
3343;SDS011;1685;53.104;8.228;2023-04-25T01:17:09;35.17;;;5.70;;
3343;SDS011;1685;53.104;8.228;2023-04-25T01:19:37;24.60;;;5.67;;
3343;SDS011;1685;53.104;8.228;2023-04-25T01:22:05;19.40;;;5.80;;
3343;SDS011;1685;53.104;8.228;2023-04-25T01:24:35;20.60;;;4.60;;
3343;SDS011;1685;53.104;8.228;2023-04-25T01:27:02;19.20;;;5.10;;
3343;SDS011;1685;53.104;8.228;2023-04-25T01:29:30;22.80;;;5.60;;
3343;SDS011;1685;53.104;8.228;2023-04-25T01:31:57;12.93;;;4.07;;
3343;SDS011;1685;53.104;8.228;2023-04-25T01:34:24;24.07;;;5.33;;
3343;SDS011;1685;53.104;8.228;2023-04-25T01:36:51;23.87;;;6.20;;
3343;SDS011;1685;53.104;8.228;2023-04-25T01:39:20;23.23;;;5.53;;
3343;SDS011;1685;53.104;8.228;2023-04-25T01:41:47;15.40;;;4.40;;
3343;SDS011;1685;53.104;8.228;2023-04-25T01:44:14;23.47;;;5.40;;
3343;SDS011;1685;53.104;8.228;2023-04-25T01:46:41;20.03;;;6.10;;
3343;SDS011;1685;53.104;8.228;2023-04-25T01:49:08;16.20;;;4.57;;
3343;SDS011;1685;53.104;8.228;2023-04-25T01:51:35;31.67;;;4.70;;
3343;SDS011;1685;53.104;8.228;2023-04-25T01:54:03;24.47;;;5.63;;
3343;SDS011;1685;53.104;8.228;2023-04-25T01:56:31;24.77;;;6.00;;
3343;SDS011;1685;53.104;8.228;2023-04-25T01:58:59;13.30;;;4.50;;
3343;SDS011;1685;53.104;8.228;2023-04-25T02:01:27;18.07;;;5.00;;
3343;SDS011;1685;53.104;8.228;2023-04-25T02:03:54;19.50;;;5.33;;
3343;SDS011;1685;53.104;8.228;2023-04-25T02:06:21;21.07;;;5.47;;
3343;SDS011;1685;53.104;8.228;2023-04-25T02:08:48;10.00;;;4.20;;
3343;SDS011;1685;53.104;8.228;2023-04-25T02:11:15;17.77;;;5.10;;
3343;SDS011;1685;53.104;8.228;2023-04-25T02:13:43;26.40;;;5.57;;
3343;SDS011;1685;53.104;8.228;2023-04-25T02:16:10;17.53;;;5.03;;
3343;SDS011;1685;53.104;8.228;2023-04-25T02:18:38;22.40;;;4.33;;
3343;SDS011;1685;53.104;8.228;2023-04-25T02:21:05;19.03;;;4.47;;
3343;SDS011;1685;53.104;8.228;2023-04-25T02:23:32;17.17;;;4.47;;
3343;SDS011;1685;53.104;8.228;2023-04-25T02:26:00;15.13;;;4.30;;
3343;SDS011;1685;53.104;8.228;2023-04-25T02:28:27;14.53;;;4.50;;
3343;SDS011;1685;53.104;8.228;2023-04-25T02:30:56;16.47;;;5.13;;
3343;SDS011;1685;53.104;8.228;2023-04-25T02:33:23;16.97;;;5.03;;
3343;SDS011;1685;53.104;8.228;2023-04-25T02:35:50;29.30;;;5.80;;
3343;SDS011;1685;53.104;8.228;2023-04-25T02:38:17;11.40;;;5.00;;
3343;SDS011;1685;53.104;8.228;2023-04-25T02:40:44;13.53;;;4.07;;
3343;SDS011;1685;53.104;8.228;2023-04-25T02:43:11;24.47;;;4.53;;
3343;SDS011;1685;53.104;8.228;2023-04-25T02:45:38;17.50;;;4.43;;
3343;SDS011;1685;53.104;8.228;2023-04-25T02:48:07;33.67;;;6.10;;
3343;SDS011;1685;53.104;8.228;2023-04-25T02:50:33;20.53;;;5.47;;
3343;SDS011;1685;53.104;8.228;2023-04-25T02:53:00;16.33;;;4.93;;
3343;SDS011;1685;53.104;8.228;2023-04-25T02:55:27;16.97;;;4.17;;
3343;SDS011;1685;53.104;8.228;2023-04-25T02:57:54;13.57;;;4.00;;
3343;SDS011;1685;53.104;8.228;2023-04-25T03:00:22;23.90;;;4.67;;
3343;SDS011;1685;53.104;8.228;2023-04-25T03:02:49;18.57;;;4.40;;
3343;SDS011;1685;53.104;8.228;2023-04-25T03:05:17;19.17;;;5.33;;
3343;SDS011;1685;53.104;8.228;2023-04-25T03:07:44;14.40;;;3.93;;
3343;SDS011;1685;53.104;8.228;2023-04-25T03:10:11;13.23;;;4.40;;
3343;SDS011;1685;53.104;8.228;2023-04-25T03:12:38;19.80;;;5.20;;
3343;SDS011;1685;53.104;8.228;2023-04-25T03:15:06;17.67;;;3.77;;
3343;SDS011;1685;53.104;8.228;2023-04-25T03:17:33;17.03;;;4.20;;
3343;SDS011;1685;53.104;8.228;2023-04-25T03:20:00;21.53;;;4.20;;
3343;SDS011;1685;53.104;8.228;2023-04-25T03:22:30;21.93;;;4.30;;
3343;SDS011;1685;53.104;8.228;2023-04-25T03:24:57;8.90;;;3.63;;
3343;SDS011;1685;53.104;8.228;2023-04-25T03:27:24;16.87;;;3.90;;
3343;SDS011;1685;53.104;8.228;2023-04-25T03:29:51;23.20;;;5.10;;
3343;SDS011;1685;53.104;8.228;2023-04-25T03:32:18;11.70;;;3.80;;
3343;SDS011;1685;53.104;8.228;2023-04-25T03:34:45;14.27;;;4.50;;
3343;SDS011;1685;53.104;8.228;2023-04-25T03:37:12;21.63;;;4.80;;
3343;SDS011;1685;53.104;8.228;2023-04-25T03:39:40;8.10;;;3.80;;
3343;SDS011;1685;53.104;8.228;2023-04-25T03:42:07;12.30;;;3.43;;
3343;SDS011;1685;53.104;8.228;2023-04-25T03:44:34;12.80;;;3.60;;
3343;SDS011;1685;53.104;8.228;2023-04-25T03:47:01;15.13;;;4.30;;
3343;SDS011;1685;53.104;8.228;2023-04-25T03:49:28;20.23;;;5.53;;
3343;SDS011;1685;53.104;8.228;2023-04-25T03:51:55;20.10;;;3.87;;
3343;SDS011;1685;53.104;8.228;2023-04-25T03:54:22;10.73;;;3.40;;
3343;SDS011;1685;53.104;8.228;2023-04-25T03:56:51;10.30;;;3.27;;
3343;SDS011;1685;53.104;8.228;2023-04-25T03:59:18;15.17;;;3.23;;
3343;SDS011;1685;53.104;8.228;2023-04-25T04:01:45;10.30;;;2.93;;
3343;SDS011;1685;53.104;8.228;2023-04-25T04:04:12;11.33;;;4.00;;
3343;SDS011;1685;53.104;8.228;2023-04-25T04:06:39;15.00;;;3.57;;
3343;SDS011;1685;53.104;8.228;2023-04-25T04:09:07;17.90;;;4.13;;
3343;SDS011;1685;53.104;8.228;2023-04-25T04:11:36;21.43;;;4.73;;
3343;SDS011;1685;53.104;8.228;2023-04-25T04:14:04;10.60;;;3.47;;
3343;SDS011;1685;53.104;8.228;2023-04-25T04:16:31;12.20;;;3.77;;
3343;SDS011;1685;53.104;8.228;2023-04-25T04:18:58;31.57;;;4.87;;
3343;SDS011;1685;53.104;8.228;2023-04-25T04:21:25;21.80;;;4.10;;
3343;SDS011;1685;53.104;8.228;2023-04-25T04:23:52;8.03;;;3.57;;
3343;SDS011;1685;53.104;8.228;2023-04-25T04:26:20;13.07;;;3.27;;
3343;SDS011;1685;53.104;8.228;2023-04-25T04:28:48;13.10;;;3.37;;
3343;SDS011;1685;53.104;8.228;2023-04-25T04:31:17;12.97;;;3.50;;
3343;SDS011;1685;53.104;8.228;2023-04-25T04:33:44;7.20;;;3.30;;
3343;SDS011;1685;53.104;8.228;2023-04-25T04:36:11;8.40;;;2.77;;
3343;SDS011;1685;53.104;8.228;2023-04-25T04:38:39;17.20;;;3.37;;
3343;SDS011;1685;53.104;8.228;2023-04-25T04:41:07;17.43;;;3.60;;
3343;SDS011;1685;53.104;8.228;2023-04-25T04:43:34;11.70;;;3.57;;
3343;SDS011;1685;53.104;8.228;2023-04-25T04:46:01;11.73;;;2.87;;
3343;SDS011;1685;53.104;8.228;2023-04-25T04:48:31;7.80;;;2.60;;
3343;SDS011;1685;53.104;8.228;2023-04-25T04:50:59;11.13;;;2.97;;
3343;SDS011;1685;53.104;8.228;2023-04-25T04:53:26;18.73;;;3.40;;
3343;SDS011;1685;53.104;8.228;2023-04-25T04:55:54;8.23;;;2.97;;
3343;SDS011;1685;53.104;8.228;2023-04-25T04:58:21;13.07;;;3.00;;
3343;SDS011;1685;53.104;8.228;2023-04-25T05:00:48;14.30;;;3.83;;
3343;SDS011;1685;53.104;8.228;2023-04-25T05:03:15;11.53;;;3.47;;
3343;SDS011;1685;53.104;8.228;2023-04-25T05:05:43;17.93;;;3.40;;
3343;SDS011;1685;53.104;8.228;2023-04-25T05:08:10;13.63;;;3.37;;
3343;SDS011;1685;53.104;8.228;2023-04-25T05:10:38;10.83;;;3.20;;
3343;SDS011;1685;53.104;8.228;2023-04-25T05:13:05;12.03;;;3.30;;
3343;SDS011;1685;53.104;8.228;2023-04-25T05:15:32;8.90;;;2.97;;
3343;SDS011;1685;53.104;8.228;2023-04-25T05:17:59;8.57;;;3.83;;
3343;SDS011;1685;53.104;8.228;2023-04-25T05:20:26;33.07;;;4.13;;
3343;SDS011;1685;53.104;8.228;2023-04-25T05:22:54;13.73;;;2.97;;
3343;SDS011;1685;53.104;8.228;2023-04-25T05:25:21;9.30;;;3.10;;
3343;SDS011;1685;53.104;8.228;2023-04-25T05:27:48;21.90;;;3.40;;
3343;SDS011;1685;53.104;8.228;2023-04-25T05:30:16;7.70;;;2.80;;
3343;SDS011;1685;53.104;8.228;2023-04-25T05:32:43;17.67;;;3.10;;
3343;SDS011;1685;53.104;8.228;2023-04-25T05:35:11;14.67;;;2.97;;
3343;SDS011;1685;53.104;8.228;2023-04-25T05:37:38;16.10;;;3.00;;
3343;SDS011;1685;53.104;8.228;2023-04-25T05:40:08;8.40;;;2.40;;
3343;SDS011;1685;53.104;8.228;2023-04-25T05:42:35;7.53;;;2.77;;
3343;SDS011;1685;53.104;8.228;2023-04-25T05:45:02;13.70;;;3.20;;
3343;SDS011;1685;53.104;8.228;2023-04-25T05:47:30;6.07;;;2.27;;
3343;SDS011;1685;53.104;8.228;2023-04-25T05:49:57;10.87;;;2.80;;
3343;SDS011;1685;53.104;8.228;2023-04-25T05:52:24;17.47;;;3.10;;
3343;SDS011;1685;53.104;8.228;2023-04-25T05:54:51;11.30;;;2.47;;
3343;SDS011;1685;53.104;8.228;2023-04-25T05:57:21;7.40;;;3.00;;
3343;SDS011;1685;53.104;8.228;2023-04-25T05:59:48;9.10;;;2.83;;
3343;SDS011;1685;53.104;8.228;2023-04-25T06:02:15;11.50;;;2.60;;
3343;SDS011;1685;53.104;8.228;2023-04-25T06:04:42;17.73;;;3.50;;
3343;SDS011;1685;53.104;8.228;2023-04-25T06:07:10;10.90;;;2.47;;
3343;SDS011;1685;53.104;8.228;2023-04-25T06:09:37;6.00;;;2.70;;
3343;SDS011;1685;53.104;8.228;2023-04-25T06:12:05;8.33;;;2.70;;
3343;SDS011;1685;53.104;8.228;2023-04-25T06:14:33;8.73;;;2.80;;
3343;SDS011;1685;53.104;8.228;2023-04-25T06:17:00;17.73;;;3.07;;
3343;SDS011;1685;53.104;8.228;2023-04-25T06:19:31;14.53;;;2.90;;
3343;SDS011;1685;53.104;8.228;2023-04-25T06:21:58;5.40;;;2.20;;
3343;SDS011;1685;53.104;8.228;2023-04-25T06:24:25;8.63;;;2.53;;
3343;SDS011;1685;53.104;8.228;2023-04-25T06:26:52;6.23;;;2.43;;
3343;SDS011;1685;53.104;8.228;2023-04-25T06:29:19;10.60;;;3.00;;
3343;SDS011;1685;53.104;8.228;2023-04-25T06:31:48;7.87;;;2.60;;
3343;SDS011;1685;53.104;8.228;2023-04-25T06:34:14;10.80;;;3.20;;
3343;SDS011;1685;53.104;8.228;2023-04-25T06:36:42;9.77;;;2.50;;
3343;SDS011;1685;53.104;8.228;2023-04-25T06:39:10;15.07;;;3.87;;
3343;SDS011;1685;53.104;8.228;2023-04-25T06:41:37;9.90;;;2.60;;
3343;SDS011;1685;53.104;8.228;2023-04-25T06:44:04;7.23;;;2.40;;
3343;SDS011;1685;53.104;8.228;2023-04-25T06:46:31;3.93;;;2.10;;
3343;SDS011;1685;53.104;8.228;2023-04-25T06:48:59;7.90;;;2.30;;
3343;SDS011;1685;53.104;8.228;2023-04-25T06:51:26;9.63;;;3.30;;
3343;SDS011;1685;53.104;8.228;2023-04-25T06:53:55;19.00;;;3.60;;
3343;SDS011;1685;53.104;8.228;2023-04-25T06:56:22;10.30;;;2.20;;
3343;SDS011;1685;53.104;8.228;2023-04-25T06:58:49;4.93;;;1.97;;
3343;SDS011;1685;53.104;8.228;2023-04-25T07:01:17;4.10;;;2.17;;
3343;SDS011;1685;53.104;8.228;2023-04-25T07:03:44;12.97;;;2.50;;
3343;SDS011;1685;53.104;8.228;2023-04-25T07:06:12;4.83;;;2.23;;
3343;SDS011;1685;53.104;8.228;2023-04-25T07:08:39;8.17;;;2.13;;
3343;SDS011;1685;53.104;8.228;2023-04-25T07:11:06;5.93;;;2.53;;
3343;SDS011;1685;53.104;8.228;2023-04-25T07:13:33;6.33;;;1.70;;
3343;SDS011;1685;53.104;8.228;2023-04-25T07:16:00;7.53;;;2.17;;
3343;SDS011;1685;53.104;8.228;2023-04-25T07:18:28;5.17;;;2.33;;
3343;SDS011;1685;53.104;8.228;2023-04-25T07:20:55;9.37;;;2.10;;
3343;SDS011;1685;53.104;8.228;2023-04-25T07:23:23;6.93;;;2.13;;
3343;SDS011;1685;53.104;8.228;2023-04-25T07:25:50;4.23;;;2.10;;
3343;SDS011;1685;53.104;8.228;2023-04-25T07:28:17;6.33;;;1.90;;
3343;SDS011;1685;53.104;8.228;2023-04-25T07:30:44;8.77;;;1.70;;
3343;SDS011;1685;53.104;8.228;2023-04-25T07:33:11;9.87;;;2.50;;
3343;SDS011;1685;53.104;8.228;2023-04-25T07:35:38;14.63;;;2.80;;
3343;SDS011;1685;53.104;8.228;2023-04-25T07:38:05;3.20;;;1.60;;
3343;SDS011;1685;53.104;8.228;2023-04-25T07:40:34;15.67;;;2.33;;
3343;SDS011;1685;53.104;8.228;2023-04-25T07:43:01;10.60;;;1.97;;
3343;SDS011;1685;53.104;8.228;2023-04-25T07:45:28;14.77;;;2.70;;
3343;SDS011;1685;53.104;8.228;2023-04-25T07:47:55;13.53;;;2.33;;
3343;SDS011;1685;53.104;8.228;2023-04-25T07:50:22;6.77;;;1.60;;
3343;SDS011;1685;53.104;8.228;2023-04-25T07:52:49;11.20;;;2.00;;
3343;SDS011;1685;53.104;8.228;2023-04-25T07:55:16;3.17;;;2.13;;
3343;SDS011;1685;53.104;8.228;2023-04-25T07:57:44;6.93;;;1.50;;
3343;SDS011;1685;53.104;8.228;2023-04-25T08:00:11;10.30;;;2.07;;
3343;SDS011;1685;53.104;8.228;2023-04-25T08:02:40;6.73;;;2.00;;
3343;SDS011;1685;53.104;8.228;2023-04-25T08:05:07;6.67;;;2.20;;
3343;SDS011;1685;53.104;8.228;2023-04-25T08:07:36;5.83;;;2.13;;
3343;SDS011;1685;53.104;8.228;2023-04-25T08:10:04;1.97;;;1.63;;
3343;SDS011;1685;53.104;8.228;2023-04-25T08:12:32;6.27;;;2.00;;
3343;SDS011;1685;53.104;8.228;2023-04-25T08:15:00;1.60;;;1.10;;
3343;SDS011;1685;53.104;8.228;2023-04-25T08:17:27;7.93;;;2.10;;
3343;SDS011;1685;53.104;8.228;2023-04-25T08:19:54;5.33;;;1.70;;
3343;SDS011;1685;53.104;8.228;2023-04-25T08:22:22;3.70;;;1.23;;
3343;SDS011;1685;53.104;8.228;2023-04-25T08:24:49;3.37;;;1.77;;
3343;SDS011;1685;53.104;8.228;2023-04-25T08:27:16;3.10;;;1.50;;
3343;SDS011;1685;53.104;8.228;2023-04-25T08:29:43;4.53;;;1.70;;
3343;SDS011;1685;53.104;8.228;2023-04-25T08:32:11;8.37;;;2.30;;
3343;SDS011;1685;53.104;8.228;2023-04-25T08:34:39;9.07;;;1.93;;
3343;SDS011;1685;53.104;8.228;2023-04-25T08:37:07;8.23;;;2.20;;
3343;SDS011;1685;53.104;8.228;2023-04-25T08:39:34;6.60;;;1.50;;
3343;SDS011;1685;53.104;8.228;2023-04-25T08:42:01;8.33;;;1.70;;
3343;SDS011;1685;53.104;8.228;2023-04-25T08:44:29;9.70;;;2.10;;
3343;SDS011;1685;53.104;8.228;2023-04-25T08:46:58;7.93;;;2.60;;
3343;SDS011;1685;53.104;8.228;2023-04-25T08:49:26;14.60;;;2.37;;
3343;SDS011;1685;53.104;8.228;2023-04-25T08:51:54;5.13;;;1.87;;
3343;SDS011;1685;53.104;8.228;2023-04-25T08:54:25;5.60;;;2.20;;
3343;SDS011;1685;53.104;8.228;2023-04-25T08:56:54;4.60;;;1.50;;
3343;SDS011;1685;53.104;8.228;2023-04-25T08:59:22;2.60;;;1.30;;
3343;SDS011;1685;53.104;8.228;2023-04-25T09:01:49;4.23;;;1.80;;
3343;SDS011;1685;53.104;8.228;2023-04-25T09:04:16;5.50;;;1.70;;
3343;SDS011;1685;53.104;8.228;2023-04-25T09:06:46;3.50;;;1.30;;
3343;SDS011;1685;53.104;8.228;2023-04-25T09:09:13;8.43;;;2.40;;
3343;SDS011;1685;53.104;8.228;2023-04-25T09:11:40;5.47;;;1.40;;
3343;SDS011;1685;53.104;8.228;2023-04-25T09:14:11;4.90;;;2.03;;
3343;SDS011;1685;53.104;8.228;2023-04-25T09:16:57;3.23;;;1.80;;
3343;SDS011;1685;53.104;8.228;2023-04-25T09:19:29;6.53;;;1.40;;
3343;SDS011;1685;53.104;8.228;2023-04-25T09:22:00;9.07;;;1.80;;
3343;SDS011;1685;53.104;8.228;2023-04-25T09:24:30;6.95;;;1.75;;
3343;SDS011;1685;53.104;8.228;2023-04-25T09:26:57;5.17;;;1.80;;
3343;SDS011;1685;53.104;8.228;2023-04-25T09:29:29;2.83;;;1.47;;
3343;SDS011;1685;53.104;8.228;2023-04-25T09:32:13;5.87;;;1.60;;
3343;SDS011;1685;53.104;8.228;2023-04-25T09:34:44;2.30;;;1.43;;
3343;SDS011;1685;53.104;8.228;2023-04-25T09:37:18;4.50;;;1.50;;
3343;SDS011;1685;53.104;8.228;2023-04-25T09:39:46;8.53;;;1.73;;
3343;SDS011;1685;53.104;8.228;2023-04-25T09:42:13;5.80;;;1.30;;
3343;SDS011;1685;53.104;8.228;2023-04-25T09:44:44;4.73;;;1.73;;
3343;SDS011;1685;53.104;8.228;2023-04-25T09:47:13;4.63;;;1.37;;
3343;SDS011;1685;53.104;8.228;2023-04-25T09:49:41;5.10;;;1.60;;
3343;SDS011;1685;53.104;8.228;2023-04-25T09:52:09;3.83;;;1.70;;
3343;SDS011;1685;53.104;8.228;2023-04-25T09:54:37;5.10;;;1.20;;
3343;SDS011;1685;53.104;8.228;2023-04-25T09:57:06;4.93;;;1.23;;
3343;SDS011;1685;53.104;8.228;2023-04-25T09:59:41;1.80;;;1.10;;
3343;SDS011;1685;53.104;8.228;2023-04-25T10:02:09;9.57;;;1.73;;
3343;SDS011;1685;53.104;8.228;2023-04-25T10:04:37;2.50;;;1.10;;
3343;SDS011;1685;53.104;8.228;2023-04-25T10:07:05;2.70;;;1.30;;
3343;SDS011;1685;53.104;8.228;2023-04-25T10:09:33;5.23;;;1.20;;
3343;SDS011;1685;53.104;8.228;2023-04-25T10:12:03;8.40;;;2.33;;
3343;SDS011;1685;53.104;8.228;2023-04-25T10:14:31;4.10;;;1.30;;
3343;SDS011;1685;53.104;8.228;2023-04-25T10:16:58;6.20;;;2.53;;
3343;SDS011;1685;53.104;8.228;2023-04-25T10:19:26;6.87;;;1.50;;
3343;SDS011;1685;53.104;8.228;2023-04-25T10:21:54;5.10;;;1.83;;
3343;SDS011;1685;53.104;8.228;2023-04-25T10:24:28;10.60;;;1.37;;
3343;SDS011;1685;53.104;8.228;2023-04-25T10:26:55;2.03;;;1.27;;
3343;SDS011;1685;53.104;8.228;2023-04-25T10:29:25;5.00;;;1.87;;
3343;SDS011;1685;53.104;8.228;2023-04-25T10:31:52;5.30;;;1.40;;
3343;SDS011;1685;53.104;8.228;2023-04-25T10:34:19;7.47;;;1.60;;
3343;SDS011;1685;53.104;8.228;2023-04-25T10:36:50;3.60;;;1.50;;
3343;SDS011;1685;53.104;8.228;2023-04-25T10:39:22;28.87;;;4.40;;
3343;SDS011;1685;53.104;8.228;2023-04-25T10:41:53;5.40;;;1.77;;
3343;SDS011;1685;53.104;8.228;2023-04-25T10:44:21;25.20;;;3.10;;
3343;SDS011;1685;53.104;8.228;2023-04-25T10:46:50;5.80;;;2.10;;
3343;SDS011;1685;53.104;8.228;2023-04-25T10:49:32;4.03;;;1.27;;
3343;SDS011;1685;53.104;8.228;2023-04-25T10:54:55;4.47;;;1.40;;
3343;SDS011;1685;53.104;8.228;2023-04-25T10:57:34;4.53;;;1.63;;
3343;SDS011;1685;53.104;8.228;2023-04-25T11:00:10;2.03;;;1.07;;
3343;SDS011;1685;53.104;8.228;2023-04-25T11:02:45;8.73;;;2.23;;
3343;SDS011;1685;53.104;8.228;2023-04-25T11:05:20;6.80;;;1.80;;
3343;SDS011;1685;53.104;8.228;2023-04-25T11:07:50;6.23;;;2.17;;
3343;SDS011;1685;53.104;8.228;2023-04-25T11:10:18;5.50;;;2.10;;
3343;SDS011;1685;53.104;8.228;2023-04-25T11:12:45;7.17;;;1.70;;
3343;SDS011;1685;53.104;8.228;2023-04-25T11:15:13;5.37;;;1.50;;
3343;SDS011;1685;53.104;8.228;2023-04-25T11:17:40;5.13;;;1.50;;
3343;SDS011;1685;53.104;8.228;2023-04-25T11:20:10;2.20;;;1.27;;
3343;SDS011;1685;53.104;8.228;2023-04-25T11:22:39;4.93;;;1.33;;
3343;SDS011;1685;53.104;8.228;2023-04-25T11:25:07;3.00;;;1.40;;
3343;SDS011;1685;53.104;8.228;2023-04-25T11:27:37;5.73;;;1.60;;
3343;SDS011;1685;53.104;8.228;2023-04-25T11:30:12;6.33;;;1.40;;
3343;SDS011;1685;53.104;8.228;2023-04-25T11:32:41;6.23;;;1.40;;
3343;SDS011;1685;53.104;8.228;2023-04-25T11:35:09;12.47;;;1.70;;
3343;SDS011;1685;53.104;8.228;2023-04-25T11:37:36;6.18;;;1.20;;
3343;SDS011;1685;53.104;8.228;2023-04-25T11:40:05;3.13;;;1.27;;
3343;SDS011;1685;53.104;8.228;2023-04-25T11:42:35;3.73;;;1.80;;
3343;SDS011;1685;53.104;8.228;2023-04-25T11:45:03;3.60;;;1.47;;
3343;SDS011;1685;53.104;8.228;2023-04-25T11:47:31;3.27;;;1.57;;
3343;SDS011;1685;53.104;8.228;2023-04-25T11:49:59;4.23;;;1.63;;
3343;SDS011;1685;53.104;8.228;2023-04-25T11:52:36;7.77;;;1.40;;
3343;SDS011;1685;53.104;8.228;2023-04-25T11:55:04;5.40;;;2.10;;
3343;SDS011;1685;53.104;8.228;2023-04-25T11:57:32;4.57;;;1.70;;
3343;SDS011;1685;53.104;8.228;2023-04-25T12:00:05;6.73;;;1.50;;
3343;SDS011;1685;53.104;8.228;2023-04-25T12:02:34;4.47;;;1.60;;
3343;SDS011;1685;53.104;8.228;2023-04-25T12:05:01;6.33;;;1.93;;
3343;SDS011;1685;53.104;8.228;2023-04-25T12:07:29;5.83;;;1.50;;
3343;SDS011;1685;53.104;8.228;2023-04-25T12:09:58;2.97;;;1.23;;
3343;SDS011;1685;53.104;8.228;2023-04-25T12:12:26;8.60;;;1.77;;
3343;SDS011;1685;53.104;8.228;2023-04-25T12:14:54;9.23;;;1.57;;
3343;SDS011;1685;53.104;8.228;2023-04-25T12:17:21;8.00;;;1.40;;
3343;SDS011;1685;53.104;8.228;2023-04-25T12:19:49;4.22;;;2.00;;
3343;SDS011;1685;53.104;8.228;2023-04-25T12:22:19;7.07;;;1.43;;
3343;SDS011;1685;53.104;8.228;2023-04-25T12:24:47;4.77;;;1.53;;
3343;SDS011;1685;53.104;8.228;2023-04-25T12:27:16;7.73;;;1.77;;
3343;SDS011;1685;53.104;8.228;2023-04-25T12:29:49;2.90;;;1.30;;
3343;SDS011;1685;53.104;8.228;2023-04-25T12:32:17;2.00;;;1.13;;
3343;SDS011;1685;53.104;8.228;2023-04-25T12:34:44;3.43;;;1.13;;
3343;SDS011;1685;53.104;8.228;2023-04-25T12:37:11;3.47;;;1.47;;
3343;SDS011;1685;53.104;8.228;2023-04-25T12:39:38;4.80;;;1.37;;
3343;SDS011;1685;53.104;8.228;2023-04-25T12:42:05;1.43;;;1.00;;
3343;SDS011;1685;53.104;8.228;2023-04-25T12:44:40;2.67;;;1.27;;
3343;SDS011;1685;53.104;8.228;2023-04-25T12:47:14;4.20;;;1.70;;
3343;SDS011;1685;53.104;8.228;2023-04-25T12:49:43;4.40;;;1.47;;
3343;SDS011;1685;53.104;8.228;2023-04-25T12:52:10;9.37;;;1.40;;
3343;SDS011;1685;53.104;8.228;2023-04-25T12:54:37;7.17;;;1.83;;
3343;SDS011;1685;53.104;8.228;2023-04-25T12:57:04;1.60;;;1.20;;
3343;SDS011;1685;53.104;8.228;2023-04-25T12:59:32;6.43;;;1.53;;
3343;SDS011;1685;53.104;8.228;2023-04-25T13:02:00;3.33;;;1.30;;
3343;SDS011;1685;53.104;8.228;2023-04-25T13:04:27;1.20;;;1.20;;
3343;SDS011;1685;53.104;8.228;2023-04-25T13:06:54;2.63;;;1.10;;
3343;SDS011;1685;53.104;8.228;2023-04-25T13:09:22;7.83;;;1.87;;
3343;SDS011;1685;53.104;8.228;2023-04-25T13:11:49;7.40;;;1.93;;
3343;SDS011;1685;53.104;8.228;2023-04-25T13:14:16;5.30;;;1.57;;
3343;SDS011;1685;53.104;8.228;2023-04-25T13:16:43;4.50;;;1.37;;
3343;SDS011;1685;53.104;8.228;2023-04-25T13:19:12;5.40;;;1.47;;
3343;SDS011;1685;53.104;8.228;2023-04-25T13:21:38;1.60;;;1.40;;
3343;SDS011;1685;53.104;8.228;2023-04-25T13:24:06;4.50;;;1.33;;
3343;SDS011;1685;53.104;8.228;2023-04-25T13:26:33;5.03;;;1.40;;
3343;SDS011;1685;53.104;8.228;2023-04-25T13:29:00;3.33;;;1.57;;
3343;SDS011;1685;53.104;8.228;2023-04-25T13:31:28;7.53;;;2.27;;
3343;SDS011;1685;53.104;8.228;2023-04-25T13:33:56;2.33;;;1.37;;
3343;SDS011;1685;53.104;8.228;2023-04-25T13:36:24;4.03;;;1.70;;
3343;SDS011;1685;53.104;8.228;2023-04-25T13:38:52;4.67;;;1.30;;
3343;SDS011;1685;53.104;8.228;2023-04-25T13:41:19;4.43;;;2.10;;
3343;SDS011;1685;53.104;8.228;2023-04-25T13:43:46;6.77;;;2.07;;
3343;SDS011;1685;53.104;8.228;2023-04-25T13:46:14;5.90;;;1.60;;
3343;SDS011;1685;53.104;8.228;2023-04-25T13:48:41;3.73;;;2.20;;
3343;SDS011;1685;53.104;8.228;2023-04-25T13:51:12;6.30;;;2.00;;
3343;SDS011;1685;53.104;8.228;2023-04-25T13:53:41;5.30;;;1.50;;
3343;SDS011;1685;53.104;8.228;2023-04-25T13:56:07;7.90;;;2.33;;
3343;SDS011;1685;53.104;8.228;2023-04-25T13:58:35;3.90;;;1.57;;
3343;SDS011;1685;53.104;8.228;2023-04-25T14:01:03;9.77;;;1.80;;
3343;SDS011;1685;53.104;8.228;2023-04-25T14:03:30;6.73;;;1.60;;
3343;SDS011;1685;53.104;8.228;2023-04-25T14:05:57;4.53;;;1.80;;
3343;SDS011;1685;53.104;8.228;2023-04-25T14:08:24;2.93;;;1.50;;
3343;SDS011;1685;53.104;8.228;2023-04-25T14:10:52;6.90;;;2.03;;
3343;SDS011;1685;53.104;8.228;2023-04-25T14:13:19;4.07;;;1.70;;
3343;SDS011;1685;53.104;8.228;2023-04-25T14:15:48;3.63;;;1.50;;
3343;SDS011;1685;53.104;8.228;2023-04-25T14:18:16;2.93;;;1.67;;
3343;SDS011;1685;53.104;8.228;2023-04-25T14:20:43;4.17;;;1.20;;
3343;SDS011;1685;53.104;8.228;2023-04-25T14:23:10;3.17;;;1.57;;
3343;SDS011;1685;53.104;8.228;2023-04-25T14:25:37;5.53;;;1.40;;
3343;SDS011;1685;53.104;8.228;2023-04-25T14:28:06;3.40;;;1.70;;
3343;SDS011;1685;53.104;8.228;2023-04-25T14:30:33;8.43;;;1.47;;
3343;SDS011;1685;53.104;8.228;2023-04-25T14:33:00;3.37;;;1.60;;
3343;SDS011;1685;53.104;8.228;2023-04-25T14:35:27;2.50;;;1.40;;
3343;SDS011;1685;53.104;8.228;2023-04-25T14:37:54;2.90;;;1.50;;
3343;SDS011;1685;53.104;8.228;2023-04-25T14:40:21;4.77;;;2.13;;
3343;SDS011;1685;53.104;8.228;2023-04-25T14:42:48;6.60;;;1.57;;
3343;SDS011;1685;53.104;8.228;2023-04-25T14:45:17;5.50;;;1.57;;
3343;SDS011;1685;53.104;8.228;2023-04-25T14:47:44;5.33;;;1.40;;
3343;SDS011;1685;53.104;8.228;2023-04-25T14:50:11;6.10;;;1.57;;
3343;SDS011;1685;53.104;8.228;2023-04-25T14:52:38;2.70;;;1.60;;
3343;SDS011;1685;53.104;8.228;2023-04-25T14:55:06;5.03;;;1.70;;
3343;SDS011;1685;53.104;8.228;2023-04-25T14:57:33;7.10;;;2.23;;
3343;SDS011;1685;53.104;8.228;2023-04-25T15:00:00;9.80;;;1.70;;
3343;SDS011;1685;53.104;8.228;2023-04-25T15:02:34;7.53;;;1.40;;
3343;SDS011;1685;53.104;8.228;2023-04-25T15:05:02;7.37;;;2.80;;
3343;SDS011;1685;53.104;8.228;2023-04-25T15:07:29;2.80;;;1.40;;
3343;SDS011;1685;53.104;8.228;2023-04-25T15:09:56;5.00;;;1.57;;
3343;SDS011;1685;53.104;8.228;2023-04-25T15:12:23;2.53;;;1.50;;
3343;SDS011;1685;53.104;8.228;2023-04-25T15:14:51;5.70;;;1.50;;
3343;SDS011;1685;53.104;8.228;2023-04-25T15:17:18;3.50;;;1.90;;